Accueil
METAR-TAF:

METAR-TAF

Aéroports :

Downtown_Memorial_Airport

Spartanburg, Caroline du Sud, États-Unis

latitude: 34-55N, longitude: 081-57W, altitude: 246 m

Observation

Le bulletin a été fait il y a 14 minutes, à 22:35 UTC
Vent 15 kt de ouest avec des rafales jusqu'à 22 kt
Température 7°C
Humidité 53%
Pression 1016 hPa
Visibilité: 16.1 km
Ciel clair

METAR: KSPA 282235Z AUTO 26015G22KT 10SM CLR 07/M02 A3000 RMK AO2

Heure: 17:49 (22:49 UTC)


TAF: absent

Observations et prévisions météorologiques de plus de 4000 aéroports (messages METAR et TAF).

Les stations disponibles sont représentées par des disques jaunes et rouges sur la carte.

Passer la souris dessus pour voir le nom de la station.

Cliquer dessus pour voir les observations et prévisions météorologiques.

Pour changer de carte: cliquez sur les boutons verts avec une croix noire pour zoomer, sur le bouton vert avec un tiret pour effectuer un zoom arrière, ou sur les flèches vertes pour les cartes adjacentes.


METAR-TAF: